sensor_id;sensor_type;location;lat;lon;timestamp;P1;durP1;ratioP1;P2;durP2;ratioP2
6356;SDS011;3211;53.452;-2.264;2022-09-01T00:02:00;4.23;;;2.30;;
6356;SDS011;3211;53.452;-2.264;2022-09-01T00:04:48;3.60;;;2.70;;
6356;SDS011;3211;53.452;-2.264;2022-09-01T00:07:32;4.17;;;2.60;;
6356;SDS011;3211;53.452;-2.264;2022-09-01T00:10:14;2.60;;;1.90;;
6356;SDS011;3211;53.452;-2.264;2022-09-01T00:12:56;3.07;;;2.23;;
6356;SDS011;3211;53.452;-2.264;2022-09-01T00:15:40;6.60;;;2.37;;
6356;SDS011;3211;53.452;-2.264;2022-09-01T00:18:22;3.70;;;2.03;;
6356;SDS011;3211;53.452;-2.264;2022-09-01T00:21:04;5.40;;;2.50;;
6356;SDS011;3211;53.452;-2.264;2022-09-01T00:23:46;3.03;;;2.10;;
6356;SDS011;3211;53.452;-2.264;2022-09-01T00:26:28;4.13;;;1.97;;
6356;SDS011;3211;53.452;-2.264;2022-09-01T00:29:11;4.07;;;2.60;;
6356;SDS011;3211;53.452;-2.264;2022-09-01T00:31:54;4.13;;;1.80;;
6356;SDS011;3211;53.452;-2.264;2022-09-01T00:34:36;3.57;;;2.40;;
6356;SDS011;3211;53.452;-2.264;2022-09-01T00:37:18;3.83;;;2.07;;
6356;SDS011;3211;53.452;-2.264;2022-09-01T00:40:00;2.43;;;2.00;;
6356;SDS011;3211;53.452;-2.264;2022-09-01T00:42:42;2.73;;;1.77;;
6356;SDS011;3211;53.452;-2.264;2022-09-01T00:45:25;4.20;;;2.37;;
6356;SDS011;3211;53.452;-2.264;2022-09-01T00:48:08;4.00;;;2.40;;
6356;SDS011;3211;53.452;-2.264;2022-09-01T00:50:50;6.87;;;1.80;;
6356;SDS011;3211;53.452;-2.264;2022-09-01T00:53:33;4.07;;;2.50;;
6356;SDS011;3211;53.452;-2.264;2022-09-01T00:56:16;3.40;;;2.13;;
6356;SDS011;3211;53.452;-2.264;2022-09-01T00:58:58;4.77;;;2.03;;
6356;SDS011;3211;53.452;-2.264;2022-09-01T01:01:41;3.87;;;2.53;;
6356;SDS011;3211;53.452;-2.264;2022-09-01T01:04:25;5.20;;;2.07;;
6356;SDS011;3211;53.452;-2.264;2022-09-01T01:07:07;2.37;;;2.13;;
6356;SDS011;3211;53.452;-2.264;2022-09-01T01:09:49;4.37;;;2.03;;
6356;SDS011;3211;53.452;-2.264;2022-09-01T01:12:31;6.13;;;2.23;;
6356;SDS011;3211;53.452;-2.264;2022-09-01T01:15:17;2.50;;;1.90;;
6356;SDS011;3211;53.452;-2.264;2022-09-01T01:17:59;4.20;;;2.17;;
6356;SDS011;3211;53.452;-2.264;2022-09-01T01:20:42;3.57;;;2.10;;
6356;SDS011;3211;53.452;-2.264;2022-09-01T01:23:47;5.47;;;2.00;;
6356;SDS011;3211;53.452;-2.264;2022-09-01T01:26:37;3.33;;;2.30;;
6356;SDS011;3211;53.452;-2.264;2022-09-01T01:29:19;3.80;;;2.40;;
6356;SDS011;3211;53.452;-2.264;2022-09-01T01:32:01;4.60;;;2.40;;
6356;SDS011;3211;53.452;-2.264;2022-09-01T01:34:52;3.63;;;2.07;;
6356;SDS011;3211;53.452;-2.264;2022-09-01T01:37:34;5.27;;;2.50;;
6356;SDS011;3211;53.452;-2.264;2022-09-01T01:40:17;4.47;;;2.27;;
6356;SDS011;3211;53.452;-2.264;2022-09-01T01:43:03;8.23;;;2.57;;
6356;SDS011;3211;53.452;-2.264;2022-09-01T01:45:45;5.00;;;2.30;;
6356;SDS011;3211;53.452;-2.264;2022-09-01T01:48:31;3.00;;;2.00;;
6356;SDS011;3211;53.452;-2.264;2022-09-01T01:51:13;4.57;;;2.03;;
6356;SDS011;3211;53.452;-2.264;2022-09-01T01:54:00;8.30;;;2.40;;
6356;SDS011;3211;53.452;-2.264;2022-09-01T01:56:45;4.40;;;2.10;;
6356;SDS011;3211;53.452;-2.264;2022-09-01T01:59:28;3.70;;;2.10;;
6356;SDS011;3211;53.452;-2.264;2022-09-01T02:02:12;5.20;;;1.97;;
6356;SDS011;3211;53.452;-2.264;2022-09-01T02:04:54;3.47;;;2.20;;
6356;SDS011;3211;53.452;-2.264;2022-09-01T02:07:36;4.17;;;2.43;;
6356;SDS011;3211;53.452;-2.264;2022-09-01T02:10:22;2.47;;;2.10;;
6356;SDS011;3211;53.452;-2.264;2022-09-01T02:13:05;4.53;;;2.40;;
6356;SDS011;3211;53.452;-2.264;2022-09-01T02:15:49;4.00;;;2.20;;
6356;SDS011;3211;53.452;-2.264;2022-09-01T02:18:33;3.63;;;2.20;;
6356;SDS011;3211;53.452;-2.264;2022-09-01T02:21:18;5.33;;;2.20;;
6356;SDS011;3211;53.452;-2.264;2022-09-01T02:24:02;3.80;;;2.20;;
6356;SDS011;3211;53.452;-2.264;2022-09-01T02:26:47;4.33;;;2.03;;
6356;SDS011;3211;53.452;-2.264;2022-09-01T02:29:30;5.03;;;2.37;;
6356;SDS011;3211;53.452;-2.264;2022-09-01T02:32:13;2.83;;;2.60;;
6356;SDS011;3211;53.452;-2.264;2022-09-01T02:35:01;3.83;;;2.53;;
6356;SDS011;3211;53.452;-2.264;2022-09-01T02:37:46;5.43;;;2.47;;
6356;SDS011;3211;53.452;-2.264;2022-09-01T02:40:30;5.67;;;2.60;;
6356;SDS011;3211;53.452;-2.264;2022-09-01T02:43:14;7.40;;;2.50;;
6356;SDS011;3211;53.452;-2.264;2022-09-01T02:45:59;5.43;;;2.00;;
6356;SDS011;3211;53.452;-2.264;2022-09-01T02:48:43;4.60;;;2.17;;
6356;SDS011;3211;53.452;-2.264;2022-09-01T02:51:30;5.70;;;2.77;;
6356;SDS011;3211;53.452;-2.264;2022-09-01T02:54:12;5.63;;;2.83;;
6356;SDS011;3211;53.452;-2.264;2022-09-01T02:56:56;7.60;;;2.23;;
6356;SDS011;3211;53.452;-2.264;2022-09-01T02:59:38;4.47;;;2.30;;
6356;SDS011;3211;53.452;-2.264;2022-09-01T03:02:21;3.93;;;2.07;;
6356;SDS011;3211;53.452;-2.264;2022-09-01T03:05:09;4.40;;;2.80;;
6356;SDS011;3211;53.452;-2.264;2022-09-01T03:07:52;4.27;;;2.70;;
6356;SDS011;3211;53.452;-2.264;2022-09-01T03:10:38;8.20;;;2.53;;
6356;SDS011;3211;53.452;-2.264;2022-09-01T03:13:21;3.70;;;1.97;;
6356;SDS011;3211;53.452;-2.264;2022-09-01T03:16:04;3.30;;;2.50;;
6356;SDS011;3211;53.452;-2.264;2022-09-01T03:18:47;3.23;;;1.87;;
6356;SDS011;3211;53.452;-2.264;2022-09-01T03:21:31;2.70;;;2.33;;
6356;SDS011;3211;53.452;-2.264;2022-09-01T03:24:14;3.73;;;2.17;;
6356;SDS011;3211;53.452;-2.264;2022-09-01T03:26:57;4.33;;;2.60;;
6356;SDS011;3211;53.452;-2.264;2022-09-01T03:29:40;2.90;;;2.23;;
6356;SDS011;3211;53.452;-2.264;2022-09-01T03:32:22;5.40;;;2.40;;
6356;SDS011;3211;53.452;-2.264;2022-09-01T03:35:04;3.93;;;2.00;;
6356;SDS011;3211;53.452;-2.264;2022-09-01T03:37:49;2.80;;;2.10;;
6356;SDS011;3211;53.452;-2.264;2022-09-01T03:40:32;3.70;;;2.10;;
6356;SDS011;3211;53.452;-2.264;2022-09-01T03:43:15;2.77;;;1.97;;
6356;SDS011;3211;53.452;-2.264;2022-09-01T03:45:59;3.83;;;2.17;;
6356;SDS011;3211;53.452;-2.264;2022-09-01T03:48:41;3.63;;;1.93;;
6356;SDS011;3211;53.452;-2.264;2022-09-01T03:51:23;6.87;;;2.23;;
6356;SDS011;3211;53.452;-2.264;2022-09-01T03:54:11;4.87;;;2.00;;
6356;SDS011;3211;53.452;-2.264;2022-09-01T03:56:53;2.97;;;2.00;;
6356;SDS011;3211;53.452;-2.264;2022-09-01T03:59:38;3.77;;;2.00;;
6356;SDS011;3211;53.452;-2.264;2022-09-01T04:02:24;6.70;;;2.27;;
6356;SDS011;3211;53.452;-2.264;2022-09-01T04:05:08;3.50;;;2.07;;
6356;SDS011;3211;53.452;-2.264;2022-09-01T04:07:50;3.60;;;2.20;;
6356;SDS011;3211;53.452;-2.264;2022-09-01T04:10:34;7.40;;;2.50;;
6356;SDS011;3211;53.452;-2.264;2022-09-01T04:13:28;2.83;;;2.10;;
6356;SDS011;3211;53.452;-2.264;2022-09-01T04:16:16;4.03;;;2.70;;
6356;SDS011;3211;53.452;-2.264;2022-09-01T04:19:14;6.30;;;2.40;;
6356;SDS011;3211;53.452;-2.264;2022-09-01T04:22:04;4.00;;;2.67;;
6356;SDS011;3211;53.452;-2.264;2022-09-01T04:24:53;8.70;;;2.73;;
6356;SDS011;3211;53.452;-2.264;2022-09-01T04:27:36;7.50;;;2.40;;
6356;SDS011;3211;53.452;-2.264;2022-09-01T04:30:20;3.10;;;2.17;;
6356;SDS011;3211;53.452;-2.264;2022-09-01T04:33:11;4.60;;;2.30;;
6356;SDS011;3211;53.452;-2.264;2022-09-01T04:35:55;3.73;;;2.03;;
6356;SDS011;3211;53.452;-2.264;2022-09-01T04:38:39;4.47;;;2.47;;
6356;SDS011;3211;53.452;-2.264;2022-09-01T04:41:22;2.47;;;2.00;;
6356;SDS011;3211;53.452;-2.264;2022-09-01T04:44:06;2.10;;;1.80;;
6356;SDS011;3211;53.452;-2.264;2022-09-01T04:46:48;3.07;;;2.23;;
6356;SDS011;3211;53.452;-2.264;2022-09-01T04:49:30;2.93;;;2.17;;
6356;SDS011;3211;53.452;-2.264;2022-09-01T04:52:12;3.43;;;1.90;;
6356;SDS011;3211;53.452;-2.264;2022-09-01T04:54:54;2.27;;;2.00;;
6356;SDS011;3211;53.452;-2.264;2022-09-01T04:57:37;4.13;;;2.00;;
6356;SDS011;3211;53.452;-2.264;2022-09-01T05:00:21;5.93;;;1.90;;
6356;SDS011;3211;53.452;-2.264;2022-09-01T05:03:03;2.80;;;2.10;;
6356;SDS011;3211;53.452;-2.264;2022-09-01T05:05:46;2.30;;;1.87;;
6356;SDS011;3211;53.452;-2.264;2022-09-01T05:08:28;22.23;;;2.60;;
6356;SDS011;3211;53.452;-2.264;2022-09-01T05:11:11;4.30;;;2.20;;
6356;SDS011;3211;53.452;-2.264;2022-09-01T05:13:56;2.70;;;2.20;;
6356;SDS011;3211;53.452;-2.264;2022-09-01T05:16:40;3.33;;;2.13;;
6356;SDS011;3211;53.452;-2.264;2022-09-01T05:19:22;6.83;;;2.30;;
6356;SDS011;3211;53.452;-2.264;2022-09-01T05:22:08;3.00;;;2.03;;
6356;SDS011;3211;53.452;-2.264;2022-09-01T05:24:52;6.63;;;2.07;;
6356;SDS011;3211;53.452;-2.264;2022-09-01T05:27:34;3.97;;;2.30;;
6356;SDS011;3211;53.452;-2.264;2022-09-01T05:30:17;2.53;;;2.10;;
6356;SDS011;3211;53.452;-2.264;2022-09-01T05:33:01;9.83;;;2.00;;
6356;SDS011;3211;53.452;-2.264;2022-09-01T05:35:51;4.50;;;2.60;;
6356;SDS011;3211;53.452;-2.264;2022-09-01T05:38:34;9.17;;;2.13;;
6356;SDS011;3211;53.452;-2.264;2022-09-01T05:41:16;6.93;;;2.40;;
6356;SDS011;3211;53.452;-2.264;2022-09-01T05:44:01;5.00;;;2.20;;
6356;SDS011;3211;53.452;-2.264;2022-09-01T05:46:47;3.90;;;2.30;;
6356;SDS011;3211;53.452;-2.264;2022-09-01T05:49:31;2.93;;;2.30;;
6356;SDS011;3211;53.452;-2.264;2022-09-01T05:52:18;4.30;;;2.30;;
6356;SDS011;3211;53.452;-2.264;2022-09-01T05:55:05;4.13;;;1.97;;
6356;SDS011;3211;53.452;-2.264;2022-09-01T05:57:49;2.93;;;2.20;;
6356;SDS011;3211;53.452;-2.264;2022-09-01T06:00:31;6.53;;;2.50;;
6356;SDS011;3211;53.452;-2.264;2022-09-01T06:03:17;3.80;;;2.23;;
6356;SDS011;3211;53.452;-2.264;2022-09-01T06:06:02;2.93;;;2.20;;
6356;SDS011;3211;53.452;-2.264;2022-09-01T06:08:48;5.80;;;2.20;;
6356;SDS011;3211;53.452;-2.264;2022-09-01T06:11:30;6.43;;;2.17;;
6356;SDS011;3211;53.452;-2.264;2022-09-01T06:14:12;6.03;;;2.30;;
6356;SDS011;3211;53.452;-2.264;2022-09-01T06:16:54;4.87;;;2.20;;
6356;SDS011;3211;53.452;-2.264;2022-09-01T06:19:37;7.70;;;1.90;;
6356;SDS011;3211;53.452;-2.264;2022-09-01T06:22:22;3.53;;;2.03;;
6356;SDS011;3211;53.452;-2.264;2022-09-01T06:25:05;5.07;;;2.43;;
6356;SDS011;3211;53.452;-2.264;2022-09-01T06:27:51;4.50;;;2.40;;
6356;SDS011;3211;53.452;-2.264;2022-09-01T06:30:33;5.30;;;2.30;;
6356;SDS011;3211;53.452;-2.264;2022-09-01T06:33:15;4.00;;;2.50;;
6356;SDS011;3211;53.452;-2.264;2022-09-01T06:35:59;8.00;;;2.17;;
6356;SDS011;3211;53.452;-2.264;2022-09-01T06:38:44;3.50;;;2.23;;
6356;SDS011;3211;53.452;-2.264;2022-09-01T06:41:26;3.20;;;2.00;;
6356;SDS011;3211;53.452;-2.264;2022-09-01T06:44:10;2.73;;;2.10;;
6356;SDS011;3211;53.452;-2.264;2022-09-01T06:46:52;6.20;;;2.20;;
6356;SDS011;3211;53.452;-2.264;2022-09-01T06:49:34;6.33;;;2.50;;
6356;SDS011;3211;53.452;-2.264;2022-09-01T06:52:19;5.20;;;2.23;;
6356;SDS011;3211;53.452;-2.264;2022-09-01T06:55:04;6.00;;;2.77;;
6356;SDS011;3211;53.452;-2.264;2022-09-01T06:57:46;2.93;;;2.17;;
6356;SDS011;3211;53.452;-2.264;2022-09-01T07:00:33;3.60;;;1.87;;
6356;SDS011;3211;53.452;-2.264;2022-09-01T07:03:21;2.53;;;1.80;;
6356;SDS011;3211;53.452;-2.264;2022-09-01T07:06:04;4.63;;;2.10;;
6356;SDS011;3211;53.452;-2.264;2022-09-01T07:08:48;2.70;;;1.87;;
6356;SDS011;3211;53.452;-2.264;2022-09-01T07:11:35;2.63;;;2.03;;
6356;SDS011;3211;53.452;-2.264;2022-09-01T07:14:18;3.30;;;1.77;;
6356;SDS011;3211;53.452;-2.264;2022-09-01T07:17:00;4.43;;;2.20;;
6356;SDS011;3211;53.452;-2.264;2022-09-01T07:19:42;3.60;;;1.90;;
6356;SDS011;3211;53.452;-2.264;2022-09-01T07:22:24;2.63;;;1.93;;
6356;SDS011;3211;53.452;-2.264;2022-09-01T07:25:06;2.80;;;1.80;;
6356;SDS011;3211;53.452;-2.264;2022-09-01T07:27:52;2.87;;;2.00;;
6356;SDS011;3211;53.452;-2.264;2022-09-01T07:30:38;3.47;;;1.93;;
6356;SDS011;3211;53.452;-2.264;2022-09-01T07:33:22;7.63;;;1.80;;
6356;SDS011;3211;53.452;-2.264;2022-09-01T07:36:04;2.83;;;2.10;;
6356;SDS011;3211;53.452;-2.264;2022-09-01T07:38:47;1.90;;;1.70;;
6356;SDS011;3211;53.452;-2.264;2022-09-01T07:41:32;3.40;;;2.00;;
6356;SDS011;3211;53.452;-2.264;2022-09-01T07:44:16;7.60;;;2.20;;
6356;SDS011;3211;53.452;-2.264;2022-09-01T07:46:58;5.77;;;2.23;;
6356;SDS011;3211;53.452;-2.264;2022-09-01T07:49:40;4.57;;;1.97;;
6356;SDS011;3211;53.452;-2.264;2022-09-01T07:52:22;3.90;;;1.70;;
6356;SDS011;3211;53.452;-2.264;2022-09-01T07:55:05;4.90;;;1.70;;
6356;SDS011;3211;53.452;-2.264;2022-09-01T07:57:48;2.60;;;1.73;;
6356;SDS011;3211;53.452;-2.264;2022-09-01T08:00:32;2.20;;;1.30;;
6356;SDS011;3211;53.452;-2.264;2022-09-01T08:03:15;4.00;;;1.80;;
6356;SDS011;3211;53.452;-2.264;2022-09-01T08:06:01;3.50;;;1.57;;
6356;SDS011;3211;53.452;-2.264;2022-09-01T08:08:45;5.30;;;1.70;;
6356;SDS011;3211;53.452;-2.264;2022-09-01T08:11:29;2.87;;;1.90;;
6356;SDS011;3211;53.452;-2.264;2022-09-01T08:14:11;2.10;;;1.80;;
6356;SDS011;3211;53.452;-2.264;2022-09-01T08:16:55;4.03;;;1.83;;
6356;SDS011;3211;53.452;-2.264;2022-09-01T08:19:36;2.87;;;1.70;;
6356;SDS011;3211;53.452;-2.264;2022-09-01T08:22:19;14.03;;;2.37;;
6356;SDS011;3211;53.452;-2.264;2022-09-01T08:25:03;4.40;;;1.57;;
6356;SDS011;3211;53.452;-2.264;2022-09-01T08:27:46;1.70;;;1.50;;
6356;SDS011;3211;53.452;-2.264;2022-09-01T08:30:28;1.93;;;1.60;;
6356;SDS011;3211;53.452;-2.264;2022-09-01T08:33:12;3.00;;;1.77;;
6356;SDS011;3211;53.452;-2.264;2022-09-01T08:35:54;2.93;;;1.90;;
6356;SDS011;3211;53.452;-2.264;2022-09-01T08:38:37;3.90;;;2.70;;
6356;SDS011;3211;53.452;-2.264;2022-09-01T08:41:24;2.47;;;1.97;;
6356;SDS011;3211;53.452;-2.264;2022-09-01T08:44:21;10.67;;;2.00;;
6356;SDS011;3211;53.452;-2.264;2022-09-01T08:47:11;3.20;;;1.90;;
6356;SDS011;3211;53.452;-2.264;2022-09-01T08:49:58;2.30;;;1.90;;
6356;SDS011;3211;53.452;-2.264;2022-09-01T08:52:41;8.93;;;2.03;;
6356;SDS011;3211;53.452;-2.264;2022-09-01T08:55:30;2.00;;;1.70;;
6356;SDS011;3211;53.452;-2.264;2022-09-01T08:58:17;5.13;;;1.70;;
6356;SDS011;3211;53.452;-2.264;2022-09-01T09:01:00;2.37;;;2.17;;
6356;SDS011;3211;53.452;-2.264;2022-09-01T09:03:50;3.70;;;1.80;;
6356;SDS011;3211;53.452;-2.264;2022-09-01T09:06:49;4.57;;;1.97;;
6356;SDS011;3211;53.452;-2.264;2022-09-01T09:09:40;3.70;;;1.63;;
6356;SDS011;3211;53.452;-2.264;2022-09-01T09:12:31;2.97;;;1.70;;
6356;SDS011;3211;53.452;-2.264;2022-09-01T09:15:32;3.20;;;1.50;;
6356;SDS011;3211;53.452;-2.264;2022-09-01T09:18:24;1.60;;;1.40;;
6356;SDS011;3211;53.452;-2.264;2022-09-01T09:21:11;1.87;;;1.60;;
6356;SDS011;3211;53.452;-2.264;2022-09-01T09:23:59;1.70;;;1.40;;
6356;SDS011;3211;53.452;-2.264;2022-09-01T09:26:47;2.13;;;1.50;;
6356;SDS011;3211;53.452;-2.264;2022-09-01T09:29:29;3.73;;;1.50;;
6356;SDS011;3211;53.452;-2.264;2022-09-01T09:32:11;1.50;;;1.30;;
6356;SDS011;3211;53.452;-2.264;2022-09-01T09:34:53;2.80;;;1.53;;
6356;SDS011;3211;53.452;-2.264;2022-09-01T09:37:35;8.07;;;1.60;;
6356;SDS011;3211;53.452;-2.264;2022-09-01T09:40:19;2.60;;;1.50;;
6356;SDS011;3211;53.452;-2.264;2022-09-01T09:43:04;1.70;;;1.30;;
6356;SDS011;3211;53.452;-2.264;2022-09-01T09:45:47;5.17;;;1.80;;
6356;SDS011;3211;53.452;-2.264;2022-09-01T09:48:30;2.47;;;1.40;;
6356;SDS011;3211;53.452;-2.264;2022-09-01T09:51:14;5.03;;;1.50;;
6356;SDS011;3211;53.452;-2.264;2022-09-01T09:54:09;2.37;;;1.40;;
6356;SDS011;3211;53.452;-2.264;2022-09-01T09:57:04;2.60;;;1.40;;
6356;SDS011;3211;53.452;-2.264;2022-09-01T09:59:53;3.43;;;1.60;;
6356;SDS011;3211;53.452;-2.264;2022-09-01T10:02:40;4.97;;;1.43;;
6356;SDS011;3211;53.452;-2.264;2022-09-01T10:05:26;1.73;;;1.40;;
6356;SDS011;3211;53.452;-2.264;2022-09-01T10:11:25;2.23;;;1.60;;
6356;SDS011;3211;53.452;-2.264;2022-09-01T10:14:12;1.67;;;1.50;;
6356;SDS011;3211;53.452;-2.264;2022-09-01T10:16:59;3.77;;;1.63;;
6356;SDS011;3211;53.452;-2.264;2022-09-01T10:19:47;2.63;;;1.40;;
6356;SDS011;3211;53.452;-2.264;2022-09-01T10:22:31;2.77;;;1.57;;
6356;SDS011;3211;53.452;-2.264;2022-09-01T10:25:15;2.13;;;1.40;;
6356;SDS011;3211;53.452;-2.264;2022-09-01T10:28:01;8.20;;;1.80;;
6356;SDS011;3211;53.452;-2.264;2022-09-01T10:30:52;3.37;;;1.57;;
6356;SDS011;3211;53.452;-2.264;2022-09-01T10:33:35;2.63;;;1.40;;
6356;SDS011;3211;53.452;-2.264;2022-09-01T10:36:17;2.53;;;1.30;;
6356;SDS011;3211;53.452;-2.264;2022-09-01T10:39:01;3.80;;;1.80;;
6356;SDS011;3211;53.452;-2.264;2022-09-01T10:41:51;2.77;;;1.97;;
6356;SDS011;3211;53.452;-2.264;2022-09-01T10:44:58;2.57;;;1.50;;
6356;SDS011;3211;53.452;-2.264;2022-09-01T10:47:42;3.87;;;1.57;;
6356;SDS011;3211;53.452;-2.264;2022-09-01T10:50:26;4.90;;;1.27;;
6356;SDS011;3211;53.452;-2.264;2022-09-01T10:53:15;1.87;;;1.37;;
6356;SDS011;3211;53.452;-2.264;2022-09-01T10:56:21;1.83;;;1.20;;
6356;SDS011;3211;53.452;-2.264;2022-09-01T10:59:07;2.80;;;1.10;;
6356;SDS011;3211;53.452;-2.264;2022-09-01T11:05:11;2.70;;;1.27;;
6356;SDS011;3211;53.452;-2.264;2022-09-01T11:07:56;2.23;;;1.50;;
6356;SDS011;3211;53.452;-2.264;2022-09-01T11:10:43;7.03;;;1.67;;
6356;SDS011;3211;53.452;-2.264;2022-09-01T11:13:36;7.63;;;1.70;;
6356;SDS011;3211;53.452;-2.264;2022-09-01T11:16:25;1.77;;;1.20;;
6356;SDS011;3211;53.452;-2.264;2022-09-01T11:19:20;1.93;;;1.20;;
6356;SDS011;3211;53.452;-2.264;2022-09-01T11:22:22;1.73;;;1.20;;
6356;SDS011;3211;53.452;-2.264;2022-09-01T11:25:29;1.77;;;1.30;;
6356;SDS011;3211;53.452;-2.264;2022-09-01T11:31:20;1.77;;;1.37;;
6356;SDS011;3211;53.452;-2.264;2022-09-01T11:34:13;1.20;;;1.10;;
6356;SDS011;3211;53.452;-2.264;2022-09-01T11:36:58;2.90;;;1.30;;
6356;SDS011;3211;53.452;-2.264;2022-09-01T11:39:45;1.53;;;1.20;;
6356;SDS011;3211;53.452;-2.264;2022-09-01T11:42:30;1.57;;;1.30;;
6356;SDS011;3211;53.452;-2.264;2022-09-01T11:45:19;2.40;;;1.10;;
6356;SDS011;3211;53.452;-2.264;2022-09-01T11:48:05;2.27;;;1.20;;
6356;SDS011;3211;53.452;-2.264;2022-09-01T11:50:55;3.67;;;1.20;;
6356;SDS011;3211;53.452;-2.264;2022-09-01T11:53:39;1.90;;;1.20;;
6356;SDS011;3211;53.452;-2.264;2022-09-01T11:56:24;1.57;;;1.10;;
6356;SDS011;3211;53.452;-2.264;2022-09-01T11:59:07;2.60;;;1.20;;
6356;SDS011;3211;53.452;-2.264;2022-09-01T12:01:55;2.30;;;1.30;;
6356;SDS011;3211;53.452;-2.264;2022-09-01T12:04:38;1.57;;;1.20;;
6356;SDS011;3211;53.452;-2.264;2022-09-01T12:07:25;4.17;;;1.27;;
6356;SDS011;3211;53.452;-2.264;2022-09-01T12:10:14;2.43;;;1.20;;
6356;SDS011;3211;53.452;-2.264;2022-09-01T12:13:01;2.47;;;1.53;;
6356;SDS011;3211;53.452;-2.264;2022-09-01T12:15:51;2.67;;;1.47;;
6356;SDS011;3211;53.452;-2.264;2022-09-01T12:18:35;1.93;;;1.20;;
6356;SDS011;3211;53.452;-2.264;2022-09-01T12:21:25;3.77;;;1.60;;
6356;SDS011;3211;53.452;-2.264;2022-09-01T12:24:12;3.00;;;1.40;;
6356;SDS011;3211;53.452;-2.264;2022-09-01T12:26:56;2.13;;;1.30;;
6356;SDS011;3211;53.452;-2.264;2022-09-01T12:29:41;2.50;;;1.30;;
6356;SDS011;3211;53.452;-2.264;2022-09-01T12:32:24;2.40;;;1.30;;
6356;SDS011;3211;53.452;-2.264;2022-09-01T12:35:12;2.60;;;1.13;;
6356;SDS011;3211;53.452;-2.264;2022-09-01T12:41:21;1.53;;;1.20;;
6356;SDS011;3211;53.452;-2.264;2022-09-01T12:47:13;4.50;;;1.40;;
6356;SDS011;3211;53.452;-2.264;2022-09-01T12:53:19;2.33;;;1.40;;
6356;SDS011;3211;53.452;-2.264;2022-09-01T12:59:11;1.33;;;1.20;;
6356;SDS011;3211;53.452;-2.264;2022-09-01T13:05:17;4.67;;;1.50;;
6356;SDS011;3211;53.452;-2.264;2022-09-01T13:08:07;1.83;;;1.20;;
6356;SDS011;3211;53.452;-2.264;2022-09-01T13:10:51;1.97;;;1.50;;
6356;SDS011;3211;53.452;-2.264;2022-09-01T13:13:35;5.10;;;1.80;;
6356;SDS011;3211;53.452;-2.264;2022-09-01T13:16:17;2.70;;;1.30;;
6356;SDS011;3211;53.452;-2.264;2022-09-01T13:19:01;2.50;;;1.67;;
6356;SDS011;3211;53.452;-2.264;2022-09-01T13:21:45;3.07;;;1.70;;
6356;SDS011;3211;53.452;-2.264;2022-09-01T13:24:27;7.43;;;1.63;;
6356;SDS011;3211;53.452;-2.264;2022-09-01T13:27:09;2.63;;;1.30;;
6356;SDS011;3211;53.452;-2.264;2022-09-01T13:29:53;3.20;;;1.30;;
6356;SDS011;3211;53.452;-2.264;2022-09-01T13:32:35;3.00;;;1.53;;
6356;SDS011;3211;53.452;-2.264;2022-09-01T13:35:19;2.17;;;1.53;;
6356;SDS011;3211;53.452;-2.264;2022-09-01T13:38:02;4.13;;;1.83;;
6356;SDS011;3211;53.452;-2.264;2022-09-01T13:40:45;2.33;;;1.40;;
6356;SDS011;3211;53.452;-2.264;2022-09-01T13:43:28;2.60;;;1.53;;
6356;SDS011;3211;53.452;-2.264;2022-09-01T13:46:10;3.30;;;1.40;;
6356;SDS011;3211;53.452;-2.264;2022-09-01T13:48:52;2.17;;;1.30;;
6356;SDS011;3211;53.452;-2.264;2022-09-01T13:51:36;2.33;;;1.30;;
6356;SDS011;3211;53.452;-2.264;2022-09-01T13:54:18;5.70;;;1.93;;
6356;SDS011;3211;53.452;-2.264;2022-09-01T13:57:00;4.80;;;1.70;;
6356;SDS011;3211;53.452;-2.264;2022-09-01T13:59:42;2.53;;;1.40;;
6356;SDS011;3211;53.452;-2.264;2022-09-01T14:02:24;2.10;;;1.30;;
6356;SDS011;3211;53.452;-2.264;2022-09-01T14:05:06;2.40;;;1.30;;
6356;SDS011;3211;53.452;-2.264;2022-09-01T14:07:50;3.63;;;1.40;;
6356;SDS011;3211;53.452;-2.264;2022-09-01T14:10:36;2.73;;;1.60;;
6356;SDS011;3211;53.452;-2.264;2022-09-01T14:13:21;1.97;;;1.40;;
6356;SDS011;3211;53.452;-2.264;2022-09-01T14:16:08;3.23;;;1.30;;
6356;SDS011;3211;53.452;-2.264;2022-09-01T14:18:51;2.77;;;1.40;;
6356;SDS011;3211;53.452;-2.264;2022-09-01T14:21:33;2.03;;;1.43;;
6356;SDS011;3211;53.452;-2.264;2022-09-01T14:24:16;2.13;;;1.30;;
6356;SDS011;3211;53.452;-2.264;2022-09-01T14:27:00;3.27;;;1.40;;
6356;SDS011;3211;53.452;-2.264;2022-09-01T14:29:42;4.43;;;1.60;;
6356;SDS011;3211;53.452;-2.264;2022-09-01T14:32:29;3.20;;;1.50;;
6356;SDS011;3211;53.452;-2.264;2022-09-01T14:35:11;4.57;;;1.40;;
6356;SDS011;3211;53.452;-2.264;2022-09-01T14:37:54;2.93;;;1.30;;
6356;SDS011;3211;53.452;-2.264;2022-09-01T14:40:39;6.00;;;1.60;;
6356;SDS011;3211;53.452;-2.264;2022-09-01T14:43:22;5.10;;;1.40;;
6356;SDS011;3211;53.452;-2.264;2022-09-01T14:46:05;3.37;;;1.23;;
6356;SDS011;3211;53.452;-2.264;2022-09-01T14:48:49;4.23;;;1.33;;
6356;SDS011;3211;53.452;-2.264;2022-09-01T14:51:31;2.97;;;1.30;;
6356;SDS011;3211;53.452;-2.264;2022-09-01T14:54:15;2.53;;;1.30;;
6356;SDS011;3211;53.452;-2.264;2022-09-01T14:56:59;1.90;;;1.30;;
6356;SDS011;3211;53.452;-2.264;2022-09-01T14:59:41;2.70;;;1.30;;
6356;SDS011;3211;53.452;-2.264;2022-09-01T15:02:23;1.50;;;1.13;;
6356;SDS011;3211;53.452;-2.264;2022-09-01T15:05:08;3.83;;;1.40;;
6356;SDS011;3211;53.452;-2.264;2022-09-01T15:07:51;6.03;;;2.00;;
6356;SDS011;3211;53.452;-2.264;2022-09-01T15:10:33;1.47;;;1.27;;
6356;SDS011;3211;53.452;-2.264;2022-09-01T15:13:17;1.40;;;1.27;;
6356;SDS011;3211;53.452;-2.264;2022-09-01T15:15:59;2.90;;;1.77;;
6356;SDS011;3211;53.452;-2.264;2022-09-01T15:18:41;4.03;;;1.47;;
6356;SDS011;3211;53.452;-2.264;2022-09-01T15:21:23;2.00;;;1.53;;
6356;SDS011;3211;53.452;-2.264;2022-09-01T15:24:07;6.80;;;1.53;;
6356;SDS011;3211;53.452;-2.264;2022-09-01T15:26:50;2.97;;;1.40;;
6356;SDS011;3211;53.452;-2.264;2022-09-01T15:29:33;3.80;;;1.40;;
6356;SDS011;3211;53.452;-2.264;2022-09-01T15:32:24;2.37;;;1.40;;
6356;SDS011;3211;53.452;-2.264;2022-09-01T15:35:06;1.87;;;1.40;;
6356;SDS011;3211;53.452;-2.264;2022-09-01T15:37:49;3.90;;;1.50;;
6356;SDS011;3211;53.452;-2.264;2022-09-01T15:40:32;3.53;;;1.10;;
6356;SDS011;3211;53.452;-2.264;2022-09-01T15:43:14;4.30;;;1.37;;
6356;SDS011;3211;53.452;-2.264;2022-09-01T15:45:57;1.70;;;1.30;;
6356;SDS011;3211;53.452;-2.264;2022-09-01T15:48:41;3.50;;;1.50;;
6356;SDS011;3211;53.452;-2.264;2022-09-01T15:51:28;2.03;;;1.20;;
6356;SDS011;3211;53.452;-2.264;2022-09-01T15:54:13;2.13;;;1.50;;
6356;SDS011;3211;53.452;-2.264;2022-09-01T15:56:57;2.63;;;1.40;;
6356;SDS011;3211;53.452;-2.264;2022-09-01T15:59:39;2.47;;;1.50;;
6356;SDS011;3211;53.452;-2.264;2022-09-01T16:02:23;5.83;;;1.60;;
6356;SDS011;3211;53.452;-2.264;2022-09-01T16:05:07;4.00;;;1.43;;
6356;SDS011;3211;53.452;-2.264;2022-09-01T16:07:50;2.90;;;1.50;;
6356;SDS011;3211;53.452;-2.264;2022-09-01T16:10:33;1.67;;;1.30;;
6356;SDS011;3211;53.452;-2.264;2022-09-01T16:13:17;2.60;;;1.57;;
6356;SDS011;3211;53.452;-2.264;2022-09-01T16:16:04;6.20;;;1.47;;
6356;SDS011;3211;53.452;-2.264;2022-09-01T16:18:56;4.70;;;1.57;;
6356;SDS011;3211;53.452;-2.264;2022-09-01T16:21:43;2.83;;;1.90;;
6356;SDS011;3211;53.452;-2.264;2022-09-01T16:24:32;2.20;;;1.50;;
6356;SDS011;3211;53.452;-2.264;2022-09-01T16:27:22;2.97;;;1.63;;
6356;SDS011;3211;53.452;-2.264;2022-09-01T16:30:09;4.50;;;1.63;;
6356;SDS011;3211;53.452;-2.264;2022-09-01T16:32:55;3.93;;;1.50;;
6356;SDS011;3211;53.452;-2.264;2022-09-01T16:35:41;3.50;;;1.60;;
6356;SDS011;3211;53.452;-2.264;2022-09-01T16:38:29;4.13;;;1.73;;
6356;SDS011;3211;53.452;-2.264;2022-09-01T16:41:25;2.23;;;1.37;;
6356;SDS011;3211;53.452;-2.264;2022-09-01T16:44:26;2.57;;;1.53;;
6356;SDS011;3211;53.452;-2.264;2022-09-01T16:47:22;4.07;;;1.77;;
6356;SDS011;3211;53.452;-2.264;2022-09-01T16:50:16;2.23;;;1.40;;
6356;SDS011;3211;53.452;-2.264;2022-09-01T16:53:09;3.00;;;1.37;;
6356;SDS011;3211;53.452;-2.264;2022-09-01T16:56:00;2.87;;;1.50;;
6356;SDS011;3211;53.452;-2.264;2022-09-01T16:58:47;3.83;;;1.50;;
6356;SDS011;3211;53.452;-2.264;2022-09-01T17:01:38;5.60;;;1.50;;
6356;SDS011;3211;53.452;-2.264;2022-09-01T17:04:30;3.27;;;1.60;;
6356;SDS011;3211;53.452;-2.264;2022-09-01T17:07:19;2.00;;;1.30;;
6356;SDS011;3211;53.452;-2.264;2022-09-01T17:10:10;2.53;;;1.50;;
6356;SDS011;3211;53.452;-2.264;2022-09-01T17:13:02;2.20;;;1.40;;
6356;SDS011;3211;53.452;-2.264;2022-09-01T17:15:58;3.33;;;1.60;;